Time;durP1;ratioP1;P1;durP2;ratioP2;P2;SDS_P1;SDS_P2;PMS_P1;PMS_P2;Temp;Humidity;BMP_temperature;BMP_pressure;BME280_temperature;BME280_humidity;BME280_pressure;Samples;Min_cycle;Max_cycle;Signal;HPM_P1;HPM_P2
2023/08/01 00:00:39;;;;;;;2.85;1.20;;;17.60;99.90;17.60;99411.00;;;;4969799;28;115731;-65
2023/08/01 00:03:08;;;;;;;5.07;1.77;;;17.60;99.90;17.60;99392.00;;;;4970504;28;110694;-64
2023/08/01 00:05:34;;;;;;;1.88;1.33;;;17.50;99.90;17.60;99395.00;;;;4966803;28;107873;-66
2023/08/01 00:07:59;;;;;;;3.58;1.35;;;17.50;99.90;17.50;99380.00;;;;4968272;28;117758;-66
2023/08/01 00:10:25;;;;;;;3.67;2.28;;;17.50;99.90;17.50;99379.00;;;;4966670;28;101193;-66
2023/08/01 00:12:50;;;;;;;1.67;1.35;;;17.40;99.90;17.50;99377.00;;;;4973623;28;109398;-66
2023/08/01 00:15:16;;;;;;;1.67;1.08;;;17.40;99.90;17.50;99368.00;;;;4966066;28;109329;-65
2023/08/01 00:17:42;;;;;;;2.08;1.88;;;17.40;99.90;17.50;99365.00;;;;4966359;28;117900;-65
2023/08/01 00:20:08;;;;;;;1.27;1.27;;;17.40;99.90;17.50;99365.00;;;;4970317;28;112481;-65
2023/08/01 00:22:34;;;;;;;2.13;1.45;;;17.40;99.90;17.40;99356.00;;;;4968390;28;90571;-65
2023/08/01 00:24:59;;;;;;;1.85;1.13;;;17.40;99.90;17.40;99351.00;;;;4971085;28;109385;-65
2023/08/01 00:27:25;;;;;;;2.92;1.45;;;17.40;99.90;17.40;99349.00;;;;4964910;28;88074;-65
2023/08/01 00:29:51;;;;;;;1.33;1.23;;;17.30;99.90;17.40;99355.00;;;;4970509;28;88815;-65
2023/08/01 00:32:16;;;;;;;2.00;1.23;;;17.30;99.90;17.40;99346.00;;;;4966838;28;109791;-65
2023/08/01 00:34:42;;;;;;;4.32;1.40;;;17.30;99.90;17.40;99335.00;;;;4972427;28;107713;-64
2023/08/01 00:37:08;;;;;;;1.50;1.40;;;17.30;99.90;17.40;99323.00;;;;4963871;28;116412;-65
2023/08/01 00:39:33;;;;;;;2.70;1.73;;;17.30;99.90;17.30;99316.00;;;;4966263;28;117810;-65
2023/08/01 00:41:59;;;;;;;5.35;1.98;;;17.30;99.90;17.30;99313.00;;;;4972888;28;94019;-64
2023/08/01 00:44:25;;;;;;;1.38;1.27;;;17.20;99.90;17.30;99309.00;;;;4970264;28;108868;-63
2023/08/01 00:46:51;;;;;;;2.45;1.20;;;17.20;99.90;17.30;99307.00;;;;4975557;28;117951;-64
2023/08/01 00:49:17;;;;;;;1.80;1.45;;;17.20;99.90;17.30;99298.00;;;;4971846;28;117748;-63
2023/08/01 00:51:43;;;;;;;2.97;2.03;;;17.20;99.90;17.30;99297.00;;;;4971715;28;111228;-65
2023/08/01 00:54:09;;;;;;;2.28;2.08;;;17.20;99.90;17.20;99279.00;;;;4975935;28;87720;-65
2023/08/01 00:56:36;;;;;;;1.85;1.65;;;17.20;99.90;17.20;99277.00;;;;4973144;28;117464;-65
2023/08/01 00:59:02;;;;;;;1.70;1.40;;;17.10;99.90;17.20;99272.00;;;;4970960;28;92178;-64
2023/08/01 01:01:28;;;;;;;6.63;1.92;;;17.10;99.90;17.20;99270.00;;;;4967588;28;110906;-65
2023/08/01 01:03:54;;;;;;;2.00;1.90;;;17.10;99.90;17.20;99270.00;;;;4969204;28;87933;-65
2023/08/01 01:06:33;;;;;;;2.40;1.50;;;17.10;99.90;17.10;99263.00;;;;4964912;28;115261;-66
2023/08/01 01:08:58;;;;;;;3.22;1.73;;;17.10;99.90;17.20;99256.00;;;;4972835;28;89567;-66
2023/08/01 01:11:24;;;;;;;4.38;2.00;;;17.10;99.90;17.10;99260.00;;;;4963325;28;109784;-66
2023/08/01 01:13:52;;;;;;;3.75;1.80;;;17.10;99.90;17.10;99256.00;;;;4971697;28;87995;-65
2023/08/01 01:16:19;;;;;;;1.67;1.52;;;17.00;99.90;17.10;99249.00;;;;4972071;28;87971;-65
2023/08/01 01:18:45;;;;;;;1.83;1.73;;;17.00;99.90;17.10;99245.00;;;;4974305;28;88311;-66
2023/08/01 01:21:11;;;;;;;1.40;1.17;;;17.00;99.90;17.10;99231.00;;;;4973624;28;89270;-65
2023/08/01 01:23:37;;;;;;;1.58;1.48;;;17.00;99.90;17.00;99228.00;;;;4972494;28;109514;-65
2023/08/01 01:26:06;;;;;;;1.35;1.25;;;17.00;99.90;17.00;99234.00;;;;4970343;28;111011;-66
2023/08/01 01:28:33;;;;;;;2.97;1.17;;;16.90;99.90;17.00;99225.00;;;;4974519;28;87999;-65
2023/08/01 01:31:01;;;;;;;2.42;2.08;;;16.90;99.90;17.00;99223.00;;;;4972315;28;109755;-67
2023/08/01 01:33:27;;;;;;;2.95;1.60;;;16.90;99.90;17.00;99213.00;;;;4972058;28;107073;-66
2023/08/01 01:35:54;;;;;;;2.10;1.80;;;16.90;99.90;17.00;99211.00;;;;4970760;28;117728;-65
2023/08/01 01:38:19;;;;;;;2.88;1.77;;;16.90;99.90;17.00;99202.00;;;;4971329;28;109467;-66
2023/08/01 01:40:45;;;;;;;1.80;1.60;;;16.90;99.90;17.00;99205.00;;;;4972193;28;112347;-67
2023/08/01 01:43:10;;;;;;;2.33;1.73;;;16.90;99.90;17.00;99210.00;;;;4969424;28;107938;-65
2023/08/01 01:45:36;;;;;;;3.08;1.40;;;16.90;99.90;17.00;99199.00;;;;4965859;28;117682;-66
2023/08/01 01:48:02;;;;;;;2.22;1.75;;;16.90;99.90;17.00;99201.00;;;;4968202;28;116484;-67
2023/08/01 01:50:27;;;;;;;1.67;1.58;;;16.90;99.90;17.00;99192.00;;;;4969968;28;110656;-67
2023/08/01 01:52:53;;;;;;;1.60;1.50;;;16.90;99.90;17.00;99194.00;;;;4967611;28;87709;-67
2023/08/01 01:55:19;;;;;;;5.60;1.98;;;16.90;99.90;17.00;99195.00;;;;4966825;28;116493;-67
2023/08/01 01:57:44;;;;;;;2.75;1.85;;;16.90;99.90;17.00;99194.00;;;;4969697;28;109002;-67
2023/08/01 02:00:11;;;;;;;7.93;1.98;;;16.90;99.90;17.10;99190.00;;;;4972851;28;110011;-68
2023/08/01 02:02:37;;;;;;;2.88;1.60;;;16.90;99.90;17.00;99189.00;;;;4969347;28;99327;-67
2023/08/01 02:05:05;;;;;;;3.72;2.05;;;17.00;99.90;17.00;99190.00;;;;4965699;28;101865;-67
2023/08/01 02:07:31;;;;;;;2.20;1.90;;;16.90;99.90;17.00;99177.00;;;;4972332;28;88073;-67
2023/08/01 02:09:57;;;;;;;3.17;1.67;;;16.90;99.90;17.00;99190.00;;;;4975793;28;87846;-67
2023/08/01 02:12:23;;;;;;;4.05;1.58;;;16.90;99.90;17.00;99169.00;;;;4969645;28;108190;-67
2023/08/01 02:14:48;;;;;;;3.13;2.05;;;16.90;99.90;17.00;99165.00;;;;4969243;28;118384;-65
2023/08/01 02:17:14;;;;;;;2.13;1.42;;;16.90;99.90;16.90;99155.00;;;;4971000;28;117507;-65
2023/08/01 02:19:39;;;;;;;3.10;1.25;;;16.90;99.90;16.90;99148.00;;;;4968950;28;110111;-65
2023/08/01 02:22:05;;;;;;;1.88;1.33;;;16.80;99.90;16.90;99144.00;;;;4968757;28;109629;-65
2023/08/01 02:24:31;;;;;;;1.63;1.15;;;16.80;99.90;16.90;99141.00;;;;4971060;28;101966;-64
2023/08/01 02:26:57;;;;;;;2.10;1.17;;;16.80;99.90;16.90;99147.00;;;;4975803;28;88603;-64
2023/08/01 02:29:22;;;;;;;3.28;1.20;;;16.80;99.90;16.90;99136.00;;;;4970888;28;109793;-64
2023/08/01 02:31:48;;;;;;;3.38;1.73;;;16.80;99.90;16.90;99123.00;;;;4973117;28;109273;-64
2023/08/01 02:34:14;;;;;;;2.10;1.80;;;16.70;99.90;16.90;99129.00;;;;4971725;28;87997;-66
2023/08/01 02:36:40;;;;;;;3.67;1.48;;;16.70;99.90;16.90;99122.00;;;;4969402;28;116402;-64
2023/08/01 02:39:06;;;;;;;2.42;1.83;;;16.80;99.90;16.90;99128.00;;;;4971503;28;87858;-64
2023/08/01 02:41:32;;;;;;;2.85;1.65;;;16.80;99.90;16.90;99125.00;;;;4973959;28;99122;-64
2023/08/01 02:43:58;;;;;;;1.65;1.55;;;16.70;99.90;16.90;99119.00;;;;4973486;28;115630;-65
2023/08/01 02:46:24;;;;;;;1.13;0.80;;;16.80;99.90;16.90;99111.00;;;;4970440;28;116439;-65
2023/08/01 02:48:50;;;;;;;1.58;1.35;;;16.80;99.90;16.90;99106.00;;;;4972981;28;108863;-66
2023/08/01 02:51:16;;;;;;;3.63;1.80;;;16.80;99.90;16.90;99105.00;;;;4970865;28;88252;-65
2023/08/01 02:53:42;;;;;;;2.40;1.58;;;16.80;99.90;16.90;99108.00;;;;4975094;28;116759;-65
2023/08/01 02:56:09;;;;;;;2.05;1.42;;;16.90;99.90;16.90;99095.00;;;;4968292;28;117352;-65
2023/08/01 02:58:36;;;;;;;2.78;1.95;;;16.80;99.90;16.90;99100.00;;;;4974024;28;87718;-65
2023/08/01 03:01:07;;;;;;;2.30;1.63;;;16.80;99.90;16.90;99101.00;;;;4975977;28;88987;-65
2023/08/01 03:03:32;;;;;;;3.67;1.10;;;16.90;99.90;16.90;99092.00;;;;4963668;28;88825;-66
2023/08/01 03:05:59;;;;;;;3.10;2.00;;;16.80;99.90;16.90;99099.00;;;;4968369;28;117111;-66
2023/08/01 03:08:25;;;;;;;1.63;1.20;;;16.80;99.90;16.90;99096.00;;;;4968715;28;103484;-65
2023/08/01 03:10:51;;;;;;;1.63;1.17;;;16.80;99.90;16.90;99090.00;;;;4969258;28;108406;-65
2023/08/01 03:13:16;;;;;;;2.15;1.95;;;16.80;99.90;16.90;99094.00;;;;4987342;27;115901;-66
2023/08/01 03:15:42;;;;;;;2.03;1.60;;;16.80;99.90;16.90;99087.00;;;;4973879;28;118405;-65
2023/08/01 03:18:08;;;;;;;1.45;1.20;;;16.70;99.90;16.80;99082.00;;;;4968640;28;110024;-66
2023/08/01 03:20:33;;;;;;;1.98;1.00;;;16.80;99.90;16.80;99086.00;;;;4971731;28;107520;-66
2023/08/01 03:22:59;;;;;;;1.00;0.93;;;16.70;99.90;16.80;99086.00;;;;4970413;28;117476;-65
2023/08/01 03:25:25;;;;;;;2.45;1.33;;;16.70;99.90;16.80;99080.00;;;;4964192;28;95656;-65
2023/08/01 03:27:50;;;;;;;3.55;1.67;;;16.70;99.90;16.80;99071.00;;;;4971831;28;88131;-65
2023/08/01 03:30:16;;;;;;;2.03;1.83;;;16.70;99.90;16.80;99064.00;;;;4968567;28;108985;-67
2023/08/01 03:32:42;;;;;;;2.22;1.45;;;16.70;99.90;16.80;99071.00;;;;4966027;28;88861;-66
2023/08/01 03:35:08;;;;;;;2.60;1.73;;;16.70;99.90;16.80;99062.00;;;;4968009;28;113450;-66
2023/08/01 03:37:33;;;;;;;1.42;1.33;;;16.70;99.90;16.80;99056.00;;;;4966370;28;101209;-66
2023/08/01 03:39:59;;;;;;;2.05;1.25;;;16.70;99.90;16.80;99049.00;;;;4969480;28;108448;-65
2023/08/01 03:42:25;;;;;;;1.98;0.95;;;16.70;99.90;16.80;99044.00;;;;4966372;28;116357;-64
2023/08/01 03:44:50;;;;;;;1.63;1.15;;;16.70;99.90;16.80;99049.00;;;;4971628;28;116336;-66
2023/08/01 03:47:16;;;;;;;1.42;1.33;;;16.70;99.90;16.80;99033.00;;;;4972304;28;108989;-67
2023/08/01 03:49:42;;;;;;;1.23;1.10;;;16.60;99.90;16.80;99031.00;;;;4971623;28;107433;-66
2023/08/01 03:52:08;;;;;;;1.10;1.10;;;16.60;99.90;16.80;99033.00;;;;4972830;28;88853;-66
2023/08/01 03:54:33;;;;;;;2.28;1.48;;;16.70;99.90;16.80;99029.00;;;;4968939;28;118151;-67
2023/08/01 03:56:59;;;;;;;1.77;1.13;;;16.70;99.90;16.80;99033.00;;;;4967876;28;107783;-65
2023/08/01 03:59:26;;;;;;;1.55;0.90;;;16.70;99.90;16.80;99033.00;;;;4970640;28;109111;-66
2023/08/01 04:01:51;;;;;;;1.67;1.58;;;16.70;99.90;16.80;99042.00;;;;4968846;28;89007;-66
2023/08/01 04:04:17;;;;;;;1.02;1.00;;;16.70;99.90;16.80;99031.00;;;;4973060;28;116832;-65
2023/08/01 04:06:43;;;;;;;1.90;1.35;;;16.70;99.90;16.80;99022.00;;;;4975000;28;110364;-65
2023/08/01 04:09:08;;;;;;;2.83;1.35;;;16.70;99.90;16.80;99010.00;;;;4972585;28;108748;-65
2023/08/01 04:11:34;;;;;;;1.75;1.00;;;16.70;99.90;16.80;99014.00;;;;4974443;28;87984;-66
2023/08/01 04:14:00;;;;;;;1.88;1.25;;;16.70;99.90;16.90;99017.00;;;;4964765;28;117744;-65
2023/08/01 04:16:26;;;;;;;1.02;0.82;;;16.70;99.90;16.90;99011.00;;;;4973075;28;109350;-65
2023/08/01 04:18:51;;;;;;;2.20;1.65;;;16.80;99.90;16.90;99011.00;;;;4973771;28;108152;-64
2023/08/01 04:21:18;;;;;;;3.20;1.83;;;16.80;99.90;16.90;99003.00;;;;4972455;28;117150;-66
2023/08/01 04:23:44;;;;;;;3.08;1.83;;;16.80;99.90;16.90;98994.00;;;;4975682;28;118434;-66
2023/08/01 04:26:09;;;;;;;1.95;1.13;;;16.80;99.90;16.90;98991.00;;;;4979089;28;88968;-65
2023/08/01 04:28:35;;;;;;;2.05;1.25;;;16.80;99.90;16.90;98996.00;;;;4972138;28;108852;-65
2023/08/01 04:31:01;;;;;;;2.08;1.48;;;16.80;99.90;16.90;98981.00;;;;4974166;28;117046;-65
2023/08/01 04:33:26;;;;;;;2.45;1.20;;;16.70;99.90;16.80;98979.00;;;;4974552;28;94492;-65
2023/08/01 04:35:52;;;;;;;4.05;1.30;;;16.70;99.90;16.90;98981.00;;;;4976201;28;110664;-65
2023/08/01 04:38:18;;;;;;;1.65;1.25;;;16.70;99.90;16.80;98974.00;;;;4972669;28;89286;-65
2023/08/01 04:40:43;;;;;;;1.20;1.10;;;16.70;99.90;16.90;98973.00;;;;4973055;28;117056;-65
2023/08/01 04:43:10;;;;;;;2.03;1.25;;;16.70;99.90;16.90;98965.00;;;;4974868;28;118187;-65
2023/08/01 04:45:36;;;;;;;4.22;1.55;;;16.80;99.90;16.90;98966.00;;;;4972820;28;98567;-65
2023/08/01 04:48:08;;;;;;;3.08;1.52;;;16.70;99.90;16.90;98968.00;;;;4971570;28;108167;-66
2023/08/01 04:50:33;;;;;;;1.50;1.40;;;16.70;99.90;16.90;98963.00;;;;4971345;28;88692;-65
2023/08/01 04:52:59;;;;;;;2.53;1.58;;;16.80;99.90;16.90;98968.00;;;;4974103;28;117397;-66
2023/08/01 04:55:25;;;;;;;1.45;1.13;;;16.80;99.90;16.90;98960.00;;;;4970762;28;109832;-67
2023/08/01 04:57:50;;;;;;;3.20;1.30;;;16.80;99.90;16.90;98951.00;;;;4971841;28;107651;-67
2023/08/01 05:00:17;;;;;;;2.13;1.67;;;16.80;99.90;17.00;98955.00;;;;4970430;28;117609;-66
2023/08/01 05:02:43;;;;;;;1.85;1.55;;;16.80;99.90;17.00;98947.00;;;;4971936;28;112519;-65
2023/08/01 05:05:09;;;;;;;1.52;1.33;;;16.90;99.90;17.00;98945.00;;;;4974808;28;110307;-65
2023/08/01 05:07:34;;;;;;;1.88;1.25;;;16.90;99.90;17.00;98938.00;;;;4977051;28;92273;-65
2023/08/01 05:10:00;;;;;;;1.90;1.35;;;16.90;99.90;17.00;98938.00;;;;4975844;28;116621;-64
2023/08/01 05:12:26;;;;;;;1.45;1.35;;;16.90;99.90;17.00;98939.00;;;;4971290;28;87674;-64
2023/08/01 05:14:51;;;;;;;3.22;1.60;;;16.90;99.90;17.00;98938.00;;;;4970001;28;87609;-64
2023/08/01 05:17:17;;;;;;;4.40;1.67;;;16.90;99.90;17.00;98931.00;;;;4972601;28;109438;-64
2023/08/01 05:19:43;;;;;;;1.38;1.25;;;16.90;99.90;17.10;98925.00;;;;4973830;28;115872;-64
2023/08/01 05:22:08;;;;;;;1.88;1.60;;;16.90;99.90;17.10;98927.00;;;;4971315;28;117630;-65
2023/08/01 05:24:34;;;;;;;2.47;1.20;;;17.00;99.90;17.10;98919.00;;;;4971473;28;110224;-64
2023/08/01 05:27:00;;;;;;;1.77;1.20;;;17.00;99.90;17.10;98921.00;;;;4963816;28;108177;-65
2023/08/01 05:29:25;;;;;;;3.25;1.15;;;17.00;99.90;17.10;98916.00;;;;4961352;28;117672;-65
2023/08/01 05:31:51;;;;;;;1.92;1.25;;;17.00;99.90;17.10;98908.00;;;;4970483;28;117809;-65
2023/08/01 05:34:16;;;;;;;2.50;1.08;;;17.00;99.90;17.10;98919.00;;;;4965795;28;109503;-65
2023/08/01 05:36:45;;;;;;;1.67;1.15;;;17.00;99.90;17.10;98911.00;;;;4964053;28;110053;-65
2023/08/01 05:39:11;;;;;;;1.15;0.95;;;17.00;99.90;17.10;98910.00;;;;4968109;28;113210;-66
2023/08/01 05:41:37;;;;;;;1.83;1.48;;;17.00;99.90;17.20;98913.00;;;;4969571;28;87911;-66
2023/08/01 05:44:03;;;;;;;1.83;1.10;;;17.00;99.90;17.20;98906.00;;;;4964397;28;87045;-65
2023/08/01 05:46:29;;;;;;;1.83;1.27;;;17.10;99.90;17.20;98906.00;;;;4968564;28;88228;-65
2023/08/01 05:48:54;;;;;;;1.80;1.30;;;17.10;99.90;17.20;98912.00;;;;4966061;28;116623;-67
2023/08/01 05:51:20;;;;;;;1.08;0.98;;;17.10;99.90;17.20;98903.00;;;;4968169;28;117680;-67
2023/08/01 05:53:46;;;;;;;1.15;1.05;;;17.10;99.90;17.20;98902.00;;;;4971273;28;93798;-66
2023/08/01 05:56:11;;;;;;;2.17;1.55;;;17.00;99.90;17.10;98894.00;;;;4965231;28;107794;-67
2023/08/01 05:58:37;;;;;;;2.08;1.35;;;17.00;99.90;17.20;98887.00;;;;4967258;28;117447;-66
2023/08/01 06:01:03;;;;;;;2.65;1.85;;;17.10;99.90;17.20;98888.00;;;;4967285;28;117310;-67
2023/08/01 06:03:29;;;;;;;2.20;1.50;;;17.40;99.90;17.20;98887.00;;;;4969006;28;87701;-66
2023/08/01 06:05:55;;;;;;;1.73;1.42;;;17.10;99.90;17.20;98885.00;;;;4970089;28;108718;-66
2023/08/01 06:08:21;;;;;;;1.17;1.08;;;17.10;99.90;17.20;98880.00;;;;4968120;28;109815;-68
2023/08/01 06:10:47;;;;;;;1.15;0.80;;;17.10;99.90;17.30;98875.00;;;;4969077;28;87885;-67
2023/08/01 06:13:12;;;;;;;1.73;1.33;;;17.10;99.90;17.30;98874.00;;;;4965618;28;87680;-67
2023/08/01 06:15:38;;;;;;;2.25;1.48;;;17.20;99.90;17.30;98868.00;;;;4967552;28;108188;-66
2023/08/01 06:18:04;;;;;;;13.10;1.80;;;17.20;99.90;17.30;98873.00;;;;4962955;28;87619;-64
2023/08/01 06:20:30;;;;;;;2.92;2.35;;;17.20;99.90;17.40;98869.00;;;;4972643;28;87825;-64
2023/08/01 06:22:55;;;;;;;2.70;1.10;;;17.20;99.90;17.30;98861.00;;;;4968774;28;88110;-65
2023/08/01 06:25:21;;;;;;;2.92;1.77;;;17.20;99.90;17.40;98863.00;;;;4965405;28;108567;-65
2023/08/01 06:27:46;;;;;;;2.22;2.03;;;17.20;99.90;17.40;98858.00;;;;4967147;28;119195;-67
2023/08/01 06:30:12;;;;;;;1.17;1.08;;;17.20;99.90;17.40;98857.00;;;;4965520;28;115845;-65
2023/08/01 06:32:38;;;;;;;3.13;1.60;;;17.20;99.90;17.40;98859.00;;;;4967092;28;108501;-64
2023/08/01 06:35:04;;;;;;;13.95;4.60;;;17.30;99.90;17.40;98850.00;;;;4967971;28;108390;-64
2023/08/01 06:37:29;;;;;;;1.48;1.33;;;17.30;99.90;17.40;98849.00;;;;4970981;28;101304;-66
2023/08/01 06:39:58;;;;;;;2.58;1.45;;;17.30;99.90;17.40;98851.00;;;;4967352;28;117580;-66
2023/08/01 06:42:24;;;;;;;4.70;2.47;;;17.30;99.90;17.40;98848.00;;;;4964462;28;87754;-67
2023/08/01 06:44:49;;;;;;;1.95;1.33;;;17.30;99.90;17.40;98838.00;;;;4973879;28;107833;-67
2023/08/01 06:47:15;;;;;;;3.42;2.25;;;17.30;99.90;17.50;98849.00;;;;4968740;28;88263;-68
2023/08/01 06:49:40;;;;;;;1.65;1.55;;;17.30;99.90;17.50;98852.00;;;;4974395;28;111174;-67
2023/08/01 06:52:07;;;;;;;2.08;1.15;;;17.40;99.90;17.50;98848.00;;;;4968643;28;109621;-66
2023/08/01 06:54:33;;;;;;;1.52;1.05;;;17.40;99.90;17.60;98850.00;;;;4968384;28;101955;-66
2023/08/01 06:56:59;;;;;;;24.17;9.65;;;17.40;99.90;17.60;98843.00;;;;4969619;28;99437;-66
2023/08/01 06:59:25;;;;;;;6.93;1.52;;;17.50;99.90;17.60;98847.00;;;;4961196;28;88314;-64
2023/08/01 07:01:51;;;;;;;3.45;0.90;;;17.50;99.90;17.70;98852.00;;;;4970312;28;104174;-66
2023/08/01 07:04:17;;;;;;;1.80;0.95;;;17.50;99.90;17.70;98845.00;;;;4968492;28;89898;-66
2023/08/01 07:06:43;;;;;;;1.15;1.05;;;17.50;99.90;17.70;98845.00;;;;4966732;28;89730;-65
2023/08/01 07:09:10;;;;;;;1.15;0.75;;;17.60;99.90;17.70;98847.00;;;;4968189;28;88109;-64
2023/08/01 07:11:35;;;;;;;0.55;0.55;;;17.60;99.90;17.80;98848.00;;;;4967817;28;87763;-65
2023/08/01 07:14:01;;;;;;;1.55;0.88;;;17.60;99.90;17.80;98843.00;;;;4971719;28;87972;-64
2023/08/01 07:16:27;;;;;;;0.80;0.52;;;17.60;99.90;17.80;98846.00;;;;4963234;28;116294;-64
2023/08/01 07:18:52;;;;;;;1.38;0.85;;;17.70;99.90;17.80;98846.00;;;;4967759;28;87676;-65
2023/08/01 07:21:18;;;;;;;2.63;0.77;;;17.70;99.90;17.80;98849.00;;;;4963832;28;110227;-64
2023/08/01 07:23:44;;;;;;;0.85;0.73;;;17.70;99.90;17.80;98840.00;;;;4967042;28;87838;-64
2023/08/01 07:26:10;;;;;;;0.95;0.82;;;18.30;99.90;17.90;98847.00;;;;4971112;28;88685;-64
2023/08/01 07:28:36;;;;;;;0.57;0.43;;;17.70;99.90;17.90;98849.00;;;;4967895;28;116699;-67
2023/08/01 07:31:05;;;;;;;0.65;0.63;;;17.70;99.90;18.00;98845.00;;;;4964286;28;110488;-66
2023/08/01 07:33:31;;;;;;;0.55;0.52;;;17.80;99.90;18.00;98848.00;;;;4968860;28;87890;-66
2023/08/01 07:35:57;;;;;;;1.15;0.35;;;17.80;99.90;18.00;98853.00;;;;4961164;28;94393;-66
2023/08/01 07:38:23;;;;;;;0.70;0.70;;;17.90;99.90;18.00;98852.00;;;;4962142;28;87483;-65
2023/08/01 07:40:50;;;;;;;0.85;0.70;;;17.80;99.90;17.90;98842.00;;;;4966656;28;110371;-67
2023/08/01 07:43:16;;;;;;;0.68;0.40;;;17.80;99.90;17.90;98857.00;;;;4968753;28;107296;-69
2023/08/01 07:45:41;;;;;;;0.80;0.80;;;17.80;99.90;17.90;98840.00;;;;4967723;28;88533;-66
2023/08/01 07:48:07;;;;;;;2.78;0.68;;;17.80;99.90;17.90;98850.00;;;;4968087;28;93558;-67
2023/08/01 07:50:33;;;;;;;0.43;0.25;;;17.80;99.90;17.90;98850.00;;;;4965620;28;110942;-65
2023/08/01 07:52:58;;;;;;;0.30;0.30;;;17.80;99.90;17.90;98844.00;;;;4975885;28;108894;-66
2023/08/01 07:55:24;;;;;;;1.45;0.65;;;17.70;99.90;17.90;98838.00;;;;4966963;28;89993;-66
2023/08/01 07:57:50;;;;;;;1.75;0.57;;;17.70;99.90;17.90;98848.00;;;;4971767;28;120582;-65
2023/08/01 08:00:16;;;;;;;0.75;0.70;;;17.70;99.90;17.90;98837.00;;;;4967493;28;110379;-66
2023/08/01 08:02:44;;;;;;;0.90;0.50;;;17.80;99.90;18.00;98838.00;;;;4965122;28;94779;-63
2023/08/01 08:05:10;;;;;;;0.65;0.65;;;17.80;99.90;18.10;98836.00;;;;4965039;28;88239;-64
2023/08/01 08:07:37;;;;;;;0.50;0.50;;;17.90;99.90;18.10;98830.00;;;;4970381;28;115039;-63
2023/08/01 08:10:05;;;;;;;0.35;0.35;;;18.00;99.90;18.20;98826.00;;;;4972406;28;86729;-64
2023/08/01 08:12:31;;;;;;;1.88;0.68;;;18.10;99.90;18.30;98829.00;;;;4973750;28;87819;-65
2023/08/01 08:14:57;;;;;;;0.85;0.52;;;18.10;99.90;18.40;98817.00;;;;4971484;28;87784;-65
2023/08/01 08:17:22;;;;;;;0.50;0.50;;;18.20;99.90;18.50;98824.00;;;;4968574;28;89514;-63
2023/08/01 08:19:48;;;;;;;0.80;0.75;;;18.30;99.90;18.50;98818.00;;;;4970814;28;110569;-63
2023/08/01 08:22:14;;;;;;;1.45;0.60;;;18.30;99.90;18.60;98825.00;;;;4969430;28;106512;-64
2023/08/01 08:24:39;;;;;;;0.75;0.75;;;18.40;99.90;18.60;98824.00;;;;4973857;28;98385;-63
2023/08/01 08:27:05;;;;;;;0.60;0.60;;;18.50;99.90;18.70;98818.00;;;;4953348;28;120229;-64
2023/08/01 08:29:32;;;;;;;0.55;0.52;;;18.50;99.90;18.80;98821.00;;;;4971571;28;98854;-63
2023/08/01 08:31:58;;;;;;;1.02;0.77;;;18.60;99.90;18.90;98824.00;;;;4971157;28;87843;-65
2023/08/01 08:34:23;;;;;;;1.38;0.82;;;18.70;99.90;19.00;98811.00;;;;4972308;28;87061;-64
2023/08/01 08:36:50;;;;;;;0.85;0.50;;;18.70;99.90;19.10;98807.00;;;;4967501;28;102875;-65
2023/08/01 08:39:18;;;;;;;2.45;0.55;;;18.90;99.90;19.20;98805.00;;;;4970580;28;87474;-65
2023/08/01 08:41:50;;;;;;;1.05;0.88;;;19.00;99.90;19.40;98808.00;;;;4968851;28;88570;-66
2023/08/01 08:44:17;;;;;;;1.33;0.80;;;19.20;99.90;19.60;98805.00;;;;4969889;28;88221;-69
2023/08/01 08:46:44;;;;;;;2.25;0.95;;;19.30;99.90;19.70;98802.00;;;;4968232;28;87861;-67
2023/08/01 08:49:11;;;;;;;0.75;0.75;;;19.50;99.90;19.80;98807.00;;;;4972137;28;87884;-69
2023/08/01 08:51:38;;;;;;;0.52;0.52;;;19.60;99.90;19.90;98791.00;;;;4970135;28;87708;-67
2023/08/01 08:54:06;;;;;;;1.38;0.50;;;19.70;99.90;20.10;98786.00;;;;4969749;28;89397;-66
2023/08/01 08:56:33;;;;;;;1.45;0.57;;;19.90;99.90;20.10;98799.00;;;;4970746;28;88613;-65
2023/08/01 08:58:59;;;;;;;2.35;0.57;;;20.00;99.90;20.20;98794.00;;;;4971990;28;87924;-68
2023/08/01 09:01:25;;;;;;;0.50;0.50;;;20.10;99.90;20.30;98783.00;;;;4965695;28;108377;-64
2023/08/01 09:03:52;;;;;;;0.47;0.40;;;20.10;99.90;20.50;98777.00;;;;4968002;28;102991;-65
2023/08/01 09:06:24;;;;;;;0.60;0.40;;;20.30;99.90;20.60;98775.00;;;;4966055;28;88744;-66
2023/08/01 09:08:56;;;;;;;5.13;0.55;;;20.40;99.90;20.80;98767.00;;;;4966304;28;88193;-66
2023/08/01 09:11:21;;;;;;;1.15;0.95;;;20.60;99.90;21.00;98764.00;;;;4970005;28;88116;-64
2023/08/01 09:13:48;;;;;;;0.98;0.80;;;20.80;99.90;21.20;98759.00;;;;4970478;28;118072;-67
2023/08/01 09:16:15;;;;;;;0.73;0.43;;;20.90;99.90;21.40;98753.00;;;;4971015;28;88070;-66
2023/08/01 09:18:51;;;;;;;0.82;0.70;;;21.10;99.90;21.50;98738.00;;;;4967238;28;87586;-66
2023/08/01 09:21:21;;;;;;;1.55;0.60;;;21.30;99.90;21.70;98733.00;;;;4969598;28;87744;-67
2023/08/01 09:23:48;;;;;;;1.42;0.55;;;21.40;99.90;21.80;98730.00;;;;4971328;28;92212;-66
2023/08/01 09:26:15;;;;;;;0.32;0.32;;;21.60;99.90;21.90;98723.00;;;;4967760;28;87847;-67
2023/08/01 09:28:41;;;;;;;0.55;0.50;;;21.70;99.90;22.10;98717.00;;;;4981917;27;87918;-65
2023/08/01 09:31:07;;;;;;;0.40;0.40;;;21.80;99.90;22.20;98704.00;;;;4968440;28;88952;-67
2023/08/01 09:33:42;;;;;;;0.52;0.30;;;21.90;99.90;22.30;98703.00;;;;4968116;28;88477;-66
2023/08/01 09:36:08;;;;;;;1.48;0.35;;;22.10;99.90;22.30;98703.00;;;;4972228;28;88012;-67
2023/08/01 09:38:36;;;;;;;1.15;0.70;;;22.20;99.90;22.40;98713.00;;;;4967922;28;87766;-66
2023/08/01 09:41:03;;;;;;;1.25;0.60;;;22.20;99.90;22.40;98751.00;;;;4969116;28;87763;-67
2023/08/01 09:43:37;;;;;;;0.65;0.40;;;22.20;99.90;22.40;98786.00;;;;4968567;28;100378;-66
2023/08/01 09:46:03;;;;;;;0.40;0.40;;;22.30;99.90;22.20;98796.00;;;;4969631;28;115461;-68
2023/08/01 09:48:30;;;;;;;1.48;0.75;;;22.10;99.90;22.00;98807.00;;;;4980641;28;87130;-66
2023/08/01 09:51:10;;;;;;;0.20;0.20;;;21.90;99.90;21.70;98809.00;;;;4968847;28;87997;-67
2023/08/01 09:53:56;;;;;;;0.10;0.10;;;21.70;99.90;21.70;98820.00;;;;4970579;28;88048;-65
2023/08/01 09:56:25;;;;;;;0.22;0.22;;;21.60;99.90;21.70;98817.00;;;;4968482;28;88717;-66
2023/08/01 09:58:55;;;;;;;0.38;0.38;;;21.60;99.90;21.70;98809.00;;;;4970555;28;87953;-65
2023/08/01 10:01:24;;;;;;;0.43;0.10;;;21.60;99.90;21.80;98807.00;;;;4974500;28;87807;-65
2023/08/01 10:03:52;;;;;;;0.93;0.68;;;21.60;99.90;21.80;98812.00;;;;4970383;28;87626;-65
2023/08/01 10:06:29;;;;;;;0.38;0.22;;;21.60;99.90;21.90;98793.00;;;;4971668;28;90223;-67
2023/08/01 10:08:54;;;;;;;0.30;0.30;;;21.70;99.90;21.90;98797.00;;;;4959968;28;89412;-65
2023/08/01 10:11:22;;;;;;;0.52;0.30;;;21.70;99.90;21.90;98795.00;;;;4969885;28;107811;-66
2023/08/01 10:13:48;;;;;;;0.35;0.35;;;21.70;99.90;21.90;98805.00;;;;4967982;28;87384;-66
2023/08/01 10:16:15;;;;;;;0.25;0.20;;;21.70;99.90;22.00;98813.00;;;;4969304;28;105132;-66
2023/08/01 10:18:43;;;;;;;0.47;0.47;;;21.70;99.90;22.00;98801.00;;;;4969114;28;87554;-66
2023/08/01 10:21:13;;;;;;;0.38;0.38;;;21.80;99.90;22.10;98796.00;;;;4971624;28;100007;-65
2023/08/01 10:23:39;;;;;;;0.40;0.40;;;21.90;99.90;22.20;98793.00;;;;4974435;28;88313;-67
2023/08/01 10:26:10;;;;;;;0.20;0.20;;;21.90;99.90;22.20;98809.00;;;;4951283;28;89589;-67
2023/08/01 10:28:49;;;;;;;0.13;0.13;;;22.00;99.90;22.20;98818.00;;;;4975494;28;87701;-67
2023/08/01 10:31:17;;;;;;;0.40;0.40;;;22.00;99.90;22.30;98804.00;;;;4966963;28;87181;-66
2023/08/01 10:33:49;;;;;;;0.13;0.13;;;22.00;99.90;22.30;98809.00;;;;4971858;28;108663;-67
2023/08/01 10:36:18;;;;;;;0.25;0.25;;;22.10;99.90;22.30;98799.00;;;;4971990;28;87983;-69
2023/08/01 10:38:52;;;;;;;0.70;0.43;;;22.10;99.90;22.40;98805.00;;;;4972300;28;86977;-67
2023/08/01 10:41:32;;;;;;;0.30;0.30;;;22.20;99.90;22.40;98809.00;;;;4973715;28;87854;-65
2023/08/01 10:44:13;;;;;;;0.25;0.25;;;22.20;99.90;22.30;98807.00;;;;4972396;28;104095;-68
2023/08/01 10:47:01;;;;;;;0.10;0.10;;;22.20;99.90;22.20;98813.00;;;;4971568;28;88302;-66